Time;durP1;ratioP1;P1;durP2;ratioP2;P2;SDS_P1;SDS_P2;PMS_P1;PMS_P2;Temp;Humidity;BMP_temperature;BMP_pressure;BME280_temperature;BME280_humidity;BME280_pressure;Samples;Min_cycle;Max_cycle;Signal;HPM_P1;HPM_P2
2023/09/29 00:00:45;;;;;;;1.98;1.55;;;;;;;16.57;69.08;101341.22;15556921;28;20070;-50
2023/09/29 00:08:22;;;;;;;0.17;0.17;;;;;;;16.47;68.85;101327.44;15583922;28;20467;-54
2023/09/29 00:15:55;;;;;;;1.40;1.30;;;;;;;16.38;69.14;101325.31;15570675;28;20053;-49
2023/09/29 00:23:29;;;;;;;0.15;0.15;;;;;;;16.36;68.88;101325.53;15608963;28;20052;-51
2023/09/29 00:31:04;;;;;;;0.35;0.35;;;;;;;16.32;68.78;101316.25;15552670;28;20038;-49
2023/09/29 00:38:38;;;;;;;0.50;0.50;;;;;;;16.26;68.48;101314.44;15586759;28;20037;-50
2023/09/29 00:46:12;;;;;;;0.68;0.65;;;;;;;16.17;69.18;101305.84;15611613;28;20052;-51
2023/09/29 00:53:48;;;;;;;0.40;0.30;;;;;;;15.94;69.64;101309.31;15601445;28;20046;-48
2023/09/29 01:01:23;;;;;;;0.85;0.85;;;;;;;15.96;70.09;101301.00;15555785;28;20096;-48
2023/09/29 01:08:59;;;;;;;1.00;0.40;;;;;;;16.06;69.34;101290.41;15547043;28;20144;-47
2023/09/29 01:16:32;;;;;;;0.30;0.30;;;;;;;16.07;69.25;101283.94;15589198;28;20046;-48
2023/09/29 01:24:07;;;;;;;1.05;1.00;;;;;;;16.05;69.26;101291.47;15545666;28;20514;-48
2023/09/29 01:31:41;;;;;;;0.50;0.38;;;;;;;15.92;69.47;101289.78;15555258;28;20431;-50
2023/09/29 01:39:16;;;;;;;0.75;0.38;;;;;;;15.84;69.86;101289.31;15533567;28;20108;-50
2023/09/29 01:46:50;;;;;;;1.35;1.23;;;;;;;15.86;70.17;101281.78;15537237;28;20046;-49
2023/09/29 01:54:24;;;;;;;;;;;;;;;15.94;69.11;101282.25;15537094;28;20490;-49
2023/09/29 02:01:58;;;;;;;0.45;0.45;;;;;;;15.88;69.55;101280.47;15530804;28;19921;-48
2023/09/29 02:09:34;;;;;;;0.85;0.70;;;;;;;15.63;70.09;101280.63;15536349;28;20101;-46
2023/09/29 02:17:08;;;;;;;0.50;0.50;;;;;;;15.76;69.72;101276.91;15530896;28;20124;-50
2023/09/29 02:24:44;;;;;;;2.35;1.90;;;;;;;15.67;69.42;101271.03;15520448;28;20049;-52
2023/09/29 02:32:18;;;;;;;0.43;0.43;;;;;;;15.71;69.94;101269.47;15529325;28;20061;-51
2023/09/29 02:39:52;;;;;;;0.82;0.63;;;;;;;15.75;69.34;101259.03;15528062;28;20129;-47
2023/09/29 02:47:26;;;;;;;0.55;0.55;;;;;;;15.70;69.13;101258.91;15529228;28;20054;-52
2023/09/29 02:55:01;;;;;;;0.45;0.45;;;;;;;15.70;69.16;101258.91;15526083;28;20108;-50
2023/09/29 03:02:34;;;;;;;0.43;0.32;;;;;;;15.42;69.87;101256.78;15533002;28;20076;-49
2023/09/29 03:10:12;;;;;;;1.02;0.93;;;;;;;15.42;69.61;101259.47;15533869;28;20040;-51
2023/09/29 03:17:47;;;;;;;0.00;0.00;;;;;;;15.39;69.54;101262.63;15532190;28;20133;-52
2023/09/29 03:25:22;;;;;;;0.73;0.50;;;;;;;15.28;70.21;101264.25;15549007;28;20124;-53
2023/09/29 03:32:57;;;;;;;9.27;1.85;;;;;;;15.35;69.37;101253.34;15524936;28;20487;-50
2023/09/29 03:40:40;;;;;;;0.75;0.63;;;;;;;15.40;68.87;101248.09;15522027;28;20050;-50
2023/09/29 03:48:14;;;;;;;0.68;0.68;;;;;;;15.15;69.65;101249.00;15548596;28;20042;-49
2023/09/29 03:55:48;;;;;;;0.65;0.65;;;;;;;15.35;69.00;101246.06;15509991;28;20046;-48
2023/09/29 04:03:21;;;;;;;0.17;0.17;;;;;;;15.30;69.22;101254.88;15543233;28;20499;-48
2023/09/29 04:10:58;;;;;;;1.27;1.13;;;;;;;15.28;69.20;101256.94;15531224;28;20042;-51
2023/09/29 04:18:31;;;;;;;1.05;0.95;;;;;;;15.47;68.55;101252.31;15548496;28;20355;-48
2023/09/29 04:26:15;;;;;;;0.20;0.20;;;;;;;15.32;68.37;101257.34;15558696;28;20109;-51
2023/09/29 04:33:48;;;;;;;0.30;0.20;;;;;;;14.91;69.60;101249.94;15558859;28;20467;-48
2023/09/29 04:41:24;;;;;;;0.45;0.45;;;;;;;15.18;68.62;101237.75;15545699;28;20053;-53
2023/09/29 04:48:58;;;;;;;0.35;0.35;;;;;;;15.11;69.02;101260.50;15513958;28;20479;-51
2023/09/29 04:56:33;;;;;;;0.75;0.75;;;;;;;14.76;70.01;101255.75;15544257;28;20158;-50
2023/09/29 05:04:07;;;;;;;6.53;0.85;;;;;;;14.84;69.56;101244.63;15551559;28;20156;-48
2023/09/29 05:11:42;;;;;;;0.10;0.08;;;;;;;14.83;69.62;101271.88;15555599;28;20050;-48
2023/09/29 05:19:15;;;;;;;1.33;0.68;;;;;;;14.79;70.40;101263.41;15551632;28;20045;-48
2023/09/29 05:26:49;;;;;;;;;;;;;;;15.28;68.13;101262.38;15540218;28;20050;-50
2023/09/29 05:34:23;;;;;;;0.63;0.63;;;;;;;15.15;68.91;101253.59;15535011;28;19994;-50
2023/09/29 05:41:57;;;;;;;1.90;0.90;;;;;;;15.09;69.54;101251.81;15555001;28;20616;-54
2023/09/29 05:49:32;;;;;;;2.05;1.20;;;;;;;15.16;69.83;101260.69;15533985;28;20459;-49
2023/09/29 05:57:07;;;;;;;1.48;0.70;;;;;;;15.65;68.68;101265.00;15532290;28;20046;-50
2023/09/29 06:04:41;;;;;;;0.95;0.60;;;;;;;15.68;68.48;101274.56;15551503;28;20042;-51
2023/09/29 06:12:16;;;;;;;0.20;0.20;;;;;;;15.88;68.93;101275.06;15535729;28;20113;-51
2023/09/29 06:19:50;;;;;;;0.00;0.00;;;;;;;15.81;68.94;101275.19;15549021;28;20046;-52
2023/09/29 06:27:25;;;;;;;0.75;0.30;;;;;;;16.17;67.59;101280.66;15558473;23;20502;-49
2023/09/29 06:35:00;;;;;;;0.17;0.17;;;;;;;16.14;68.79;101286.53;15523502;28;20503;-51
2023/09/29 06:42:34;;;;;;;0.25;0.22;;;;;;;16.55;67.64;101283.72;15506145;28;20122;-50
2023/09/29 06:50:10;;;;;;;0.30;0.22;;;;;;;17.11;66.63;101284.13;15495812;28;20050;-50
2023/09/29 06:57:44;;;;;;;0.15;0.15;;;;;;;17.40;65.76;101297.72;15510390;28;20574;-53
2023/09/29 07:05:21;;;;;;;0.47;0.47;;;;;;;17.60;64.60;101295.41;15555501;28;20037;-50
2023/09/29 07:12:56;;;;;;;0.32;0.32;;;;;;;17.99;63.76;101298.28;15521798;28;20049;-48
2023/09/29 07:20:30;;;;;;;0.90;0.85;;;;;;;18.47;62.99;101299.59;15554171;28;20053;-50
2023/09/29 07:28:06;;;;;;;0.00;0.00;;;;;;;18.63;63.29;101298.75;15523571;28;20041;-48
2023/09/29 07:35:43;;;;;;;0.45;0.45;;;;;;;18.68;63.45;101293.38;15502259;28;20053;-50
2023/09/29 07:43:20;;;;;;;0.30;0.30;;;;;;;19.42;61.00;101295.69;15487372;28;20042;-49
2023/09/29 07:50:56;;;;;;;1.10;1.00;;;;;;;19.88;59.40;101298.91;15492297;28;20042;-49
2023/09/29 07:58:31;;;;;;;0.38;0.38;;;;;;;20.49;58.27;101291.22;15497836;28;20065;-48
2023/09/29 08:06:04;;;;;;;0.35;0.30;;;;;;;20.88;57.49;101286.25;15547984;28;20090;-50
2023/09/29 08:13:38;;;;;;;1.10;0.88;;;;;;;20.92;57.70;101288.47;15510040;28;20042;-48
2023/09/29 08:21:11;;;;;;;1.10;0.70;;;;;;;21.07;57.84;101272.16;15513440;28;20122;-48
2023/09/29 08:28:46;;;;;;;0.52;0.38;;;;;;;20.71;58.38;101284.81;15473778;28;20058;-50
2023/09/29 08:36:19;;;;;;;0.80;0.80;;;;;;;21.18;57.39;101282.03;15491038;28;20101;-50
2023/09/29 08:43:54;;;;;;;0.50;0.15;;;;;;;20.64;58.61;101280.41;15533313;28;20038;-50
2023/09/29 08:51:28;;;;;;;0.20;0.20;;;;;;;20.70;58.35;101283.97;15550724;28;20045;-49
2023/09/29 08:59:03;;;;;;;0.80;0.80;;;;;;;21.08;57.37;101301.09;15538289;28;20042;-52
2023/09/29 09:06:36;;;;;;;0.52;0.52;;;;;;;21.10;58.60;101316.13;15508786;28;20482;-51
2023/09/29 09:14:11;;;;;;;0.75;0.47;;;;;;;21.08;57.27;101296.47;15524139;28;20042;-47
2023/09/29 09:21:46;;;;;;;0.47;0.47;;;;;;;21.09;58.47;101309.03;15501463;28;20522;-49
2023/09/29 09:29:20;;;;;;;0.85;0.30;;;;;;;21.32;58.80;101309.69;15501872;28;20042;-50
2023/09/29 09:36:55;;;;;;;3.13;0.80;;;;;;;21.32;58.11;101301.50;15499416;28;20057;-50
2023/09/29 09:44:32;;;;;;;1.65;1.13;;;;;;;20.95;60.52;101316.06;15533724;28;20057;-49
2023/09/29 09:52:08;;;;;;;0.30;0.30;;;;;;;21.20;59.74;101319.97;15536320;28;20064;-49
2023/09/29 09:59:46;;;;;;;0.45;0.45;;;;;;;22.38;57.51;101306.28;15524600;28;20081;-50
2023/09/29 10:07:20;;;;;;;0.35;0.32;;;;;;;22.91;54.84;101306.72;15494814;28;20069;-47
2023/09/29 10:14:55;;;;;;;0.17;0.17;;;;;;;22.35;55.83;101303.28;15503992;28;20046;-47
2023/09/29 10:22:28;;;;;;;0.45;0.40;;;;;;;22.46;55.80;101302.16;15497209;28;20491;-49
2023/09/29 10:30:16;;;;;;;0.22;0.22;;;;;;;22.77;54.89;101308.38;15550359;28;20197;-48
2023/09/29 10:37:54;;;;;;;14.07;0.95;;;;;;;22.80;54.79;101302.38;15540859;28;20053;-46
2023/09/29 10:45:36;;;;;;;1.00;0.40;;;;;;;23.04;54.29;101277.94;15499958;28;20069;-47
2023/09/29 10:53:09;;;;;;;0.17;0.17;;;;;;;23.40;53.83;101295.00;15549901;28;20038;-50
2023/09/29 11:00:49;;;;;;;1.48;0.73;;;;;;;23.28;54.13;101289.03;15494721;28;20521;-48
2023/09/29 11:08:29;;;;;;;1.58;1.25;;;;;;;23.10;53.55;101254.91;15490863;28;20109;-46
2023/09/29 11:16:16;;;;;;;0.50;0.50;;;;;;;23.38;53.41;101279.94;15502330;28;20124;-51
2023/09/29 11:23:50;;;;;;;0.00;0.00;;;;;;;23.14;53.97;101285.28;15494070;28;20054;-50
2023/09/29 11:31:26;;;;;;;0.32;0.25;;;;;;;22.97;54.41;101274.66;15492249;28;20141;-48
2023/09/29 11:39:00;;;;;;;0.88;0.60;;;;;;;23.10;53.55;101279.53;15497229;28;20450;-50
2023/09/29 11:46:35;;;;;;;0.30;0.28;;;;;;;22.99;54.33;101277.97;15552361;28;20042;-51
2023/09/29 11:54:09;;;;;;;1.45;0.45;;;;;;;22.88;54.64;101276.31;15553372;28;20038;-48
2023/09/29 12:01:46;;;;;;;0.30;0.30;;;;;;;22.94;54.20;101269.75;15500952;28;20435;-51
2023/09/29 12:09:19;;;;;;;0.20;0.20;;;;;;;23.04;53.68;101253.28;15490752;28;20093;-47
2023/09/29 12:16:54;;;;;;;3.47;0.98;;;;;;;22.80;53.72;101250.34;15497011;28;20305;-50
2023/09/29 12:24:27;;;;;;;0.00;0.00;;;;;;;22.58;53.17;101238.94;15482957;28;20257;-50
2023/09/29 12:32:02;;;;;;;0.60;0.52;;;;;;;23.09;52.52;101225.06;15522493;28;20049;-46
2023/09/29 12:39:39;;;;;;;0.47;0.47;;;;;;;22.64;54.71;101230.41;15483775;28;20047;-50
2023/09/29 12:47:13;;;;;;;0.45;0.40;;;;;;;23.27;53.99;101215.34;15510433;28;20042;-49
2023/09/29 12:54:47;;;;;;;0.20;0.20;;;;;;;22.97;55.45;101208.16;15501105;28;20051;-50
2023/09/29 13:02:24;;;;;;;0.10;0.10;;;;;;;23.06;55.69;101214.66;15553644;28;20096;-49
2023/09/29 13:09:57;;;;;;;0.00;0.00;;;;;;;23.38;55.03;101215.00;15509268;28;20053;-52
2023/09/29 13:17:31;;;;;;;0.45;0.28;;;;;;;23.25;55.58;101199.22;15550871;28;20446;-49
2023/09/29 13:25:06;;;;;;;0.85;0.52;;;;;;;23.58;55.23;101189.38;15561242;28;20038;-49
2023/09/29 13:32:40;;;;;;;2.08;0.73;;;;;;;23.49;54.95;101169.16;15551805;28;20491;-48
2023/09/29 13:40:16;;;;;;;1.50;0.40;;;;;;;22.88;56.42;101170.38;15541702;28;20054;-48
2023/09/29 13:47:50;;;;;;;1.05;0.80;;;;;;;23.22;55.70;101161.44;15542075;28;20233;-48
2023/09/29 13:55:24;;;;;;;2.25;0.55;;;;;;;23.45;55.16;101154.41;15534107;28;20046;-51
2023/09/29 14:02:59;;;;;;;0.10;0.10;;;;;;;23.30;55.02;101149.06;15544501;28;20069;-51
2023/09/29 14:10:32;;;;;;;0.50;0.50;;;;;;;23.36;54.89;101143.25;15500009;28;20051;-49
2023/09/29 14:18:06;;;;;;;0.03;0.03;;;;;;;23.54;54.77;101147.19;15513495;28;20050;-51
2023/09/29 14:25:39;;;;;;;11.70;1.65;;;;;;;23.72;53.97;101126.53;15493116;28;20034;-50
2023/09/29 14:33:14;;;;;;;1.23;1.08;;;;;;;23.44;54.51;101117.16;15516992;28;20050;-49
2023/09/29 14:40:48;;;;;;;0.35;0.30;;;;;;;23.57;55.01;101121.16;15552874;28;20089;-50
2023/09/29 14:48:22;;;;;;;0.15;0.15;;;;;;;23.43;56.16;101113.59;15496571;28;20046;-49
2023/09/29 14:55:55;;;;;;;0.90;0.60;;;;;;;23.67;55.63;101101.91;15509525;28;20038;-50
2023/09/29 15:03:31;;;;;;;0.17;0.17;;;;;;;23.65;57.04;101099.47;15557214;28;20411;-49
2023/09/29 15:11:05;;;;;;;0.10;0.10;;;;;;;23.73;55.98;101087.03;15535832;28;20053;-49
2023/09/29 15:18:39;;;;;;;0.20;0.20;;;;;;;23.68;56.92;101089.84;15485656;28;20454;-51
2023/09/29 15:26:13;;;;;;;0.20;0.20;;;;;;;23.89;56.52;101079.47;15494196;28;20038;-51
2023/09/29 15:33:47;;;;;;;0.17;0.17;;;;;;;23.73;55.46;101081.56;15529061;28;20041;-52
2023/09/29 15:41:22;;;;;;;0.93;0.73;;;;;;;24.17;55.31;101097.78;15530870;28;20112;-53
2023/09/29 15:48:58;;;;;;;0.20;0.20;;;;;;;23.88;54.83;101092.38;15498858;28;20046;-52
2023/09/29 15:56:31;;;;;;;0.52;0.43;;;;;;;24.09;54.07;101097.63;15529988;28;20466;-53
2023/09/29 16:04:06;;;;;;;0.00;0.00;;;;;;;24.20;54.40;101090.91;15547443;28;20046;-48
2023/09/29 16:11:39;;;;;;;1.33;0.43;;;;;;;24.20;55.05;101088.16;15521195;28;20055;-52
2023/09/29 16:19:14;;;;;;;1.45;0.95;;;;;;;24.09;55.78;101094.88;15502287;28;20125;-53
2023/09/29 16:26:47;;;;;;;0.57;0.47;;;;;;;23.84;55.88;101087.78;15515668;28;20297;-52
2023/09/29 16:34:22;;;;;;;0.00;0.00;;;;;;;23.78;55.53;101091.66;15522142;28;20742;-52
2023/09/29 16:41:55;;;;;;;1.95;0.65;;;;;;;23.66;55.75;101081.09;15553297;28;20133;-52
2023/09/29 16:49:30;;;;;;;0.60;0.40;;;;;;;23.38;56.80;101091.72;15530758;28;20074;-51
2023/09/29 16:57:04;;;;;;;1.55;0.70;;;;;;;23.14;57.81;101083.44;15521028;28;20038;-50
2023/09/29 17:04:39;;;;;;;0.10;0.10;;;;;;;23.17;58.34;101087.53;15564355;28;20546;-52
2023/09/29 17:12:12;;;;;;;1.00;0.32;;;;;;;23.07;59.09;101084.88;15547686;28;20049;-53
2023/09/29 17:19:50;;;;;;;0.38;0.30;;;;;;;22.95;59.59;101092.63;15503054;28;20129;-51
2023/09/29 17:27:23;;;;;;;0.98;0.35;;;;;;;22.67;61.36;101100.44;15514956;28;20062;-51
2023/09/29 17:34:59;;;;;;;1.10;0.47;;;;;;;22.39;62.71;101102.75;15537326;28;20038;-51
2023/09/29 17:42:32;;;;;;;0.80;0.50;;;;;;;22.30;63.29;101100.91;15558710;28;20049;-51
2023/09/29 17:50:08;;;;;;;0.43;0.43;;;;;;;22.19;63.19;101111.03;15554135;28;20522;-51
2023/09/29 17:57:42;;;;;;;0.28;0.22;;;;;;;22.14;63.23;101097.38;15533798;28;20080;-51
2023/09/29 18:05:16;;;;;;;0.52;0.40;;;;;;;21.93;64.07;101091.16;15524153;28;20050;-49
2023/09/29 18:12:50;;;;;;;2.55;1.55;;;;;;;21.87;64.37;101097.72;15532998;28;20043;-54
2023/09/29 18:20:25;;;;;;;29.67;2.30;;;;;;;21.71;64.52;101096.91;15497731;28;20136;-50
2023/09/29 18:27:58;;;;;;;1.73;0.70;;;;;;;21.70;64.02;101105.41;15687698;23;20044;-46
2023/09/29 18:35:34;;;;;;;0.80;0.43;;;;;;;21.70;63.82;101103.50;15726941;28;20102;-45
2023/09/29 18:43:08;;;;;;;0.30;0.30;;;;;;;21.63;64.11;101081.06;15667509;28;20155;-46
2023/09/29 18:50:43;;;;;;;3.33;0.85;;;;;;;21.61;63.86;101096.94;15674872;28;20057;-45
2023/09/29 18:58:16;;;;;;;0.40;0.40;;;;;;;21.56;63.02;101096.94;15672581;28;20041;-53
2023/09/29 19:05:51;;;;;;;1.25;0.65;;;;;;;21.64;62.39;101105.41;15648672;28;20140;-46
2023/09/29 19:13:24;;;;;;;0.80;0.73;;;;;;;21.49;60.17;101119.06;15664195;28;20120;-49
2023/09/29 19:20:58;;;;;;;0.40;0.40;;;;;;;21.62;58.67;101114.97;15666856;28;20052;-49
2023/09/29 19:28:31;;;;;;;2.58;1.20;;;;;;;21.55;57.49;101108.97;15644554;28;20076;-47
2023/09/29 19:36:06;;;;;;;0.75;0.50;;;;;;;21.57;57.02;101123.97;15664675;28;20076;-48
2023/09/29 19:43:40;;;;;;;0.30;0.22;;;;;;;21.72;56.80;101134.06;15668188;28;20052;-49
2023/09/29 19:51:14;;;;;;;0.43;0.28;;;;;;;21.58;56.63;101147.47;15663273;28;20076;-47
2023/09/29 19:58:50;;;;;;;2.08;0.85;;;;;;;21.39;56.99;101155.38;15695987;28;20140;-50
2023/09/29 20:06:25;;;;;;;0.00;0.00;;;;;;;21.70;56.67;101166.34;15670694;28;20075;-49
2023/09/29 20:13:58;;;;;;;0.00;0.00;;;;;;;21.63;57.29;101180.25;15657639;28;20118;-49
2023/09/29 20:21:33;;;;;;;1.58;0.85;;;;;;;21.80;57.17;101190.09;15687924;28;20037;-49
2023/09/29 20:29:06;;;;;;;0.30;0.30;;;;;;;21.87;57.88;101205.13;15662573;28;20040;-49
2023/09/29 20:36:45;;;;;;;4.05;1.13;;;;;;;21.69;58.97;101216.63;15702676;28;20092;-53
2023/09/29 20:44:19;;;;;;;0.30;0.25;;;;;;;21.53;59.51;101225.88;15670415;28;20037;-46
2023/09/29 20:51:53;;;;;;;0.70;0.43;;;;;;;21.41;59.78;101236.25;15666965;28;20516;-52
2023/09/29 20:59:27;;;;;;;0.40;0.25;;;;;;;21.62;59.17;101254.28;15669839;28;20102;-45
2023/09/29 21:07:02;;;;;;;8.82;0.82;;;;;;;21.08;61.08;101254.69;15659910;28;20562;-49
2023/09/29 21:14:35;;;;;;;1.40;0.43;;;;;;;21.08;60.85;101257.44;15680065;28;20131;-45
2023/09/29 21:22:10;;;;;;;0.80;0.65;;;;;;;21.02;61.38;101269.41;15679703;28;20045;-51
2023/09/29 21:29:43;;;;;;;1.95;0.57;;;;;;;20.69;62.50;101271.44;15678046;28;20049;-47
2023/09/29 21:37:17;;;;;;;0.10;0.10;;;;;;;20.65;62.94;101283.94;15644794;28;20072;-48
2023/09/29 21:44:53;;;;;;;1.67;1.58;;;;;;;20.94;62.47;101297.19;15678113;28;20049;-49
2023/09/29 21:52:27;;;;;;;3.72;1.23;;;;;;;20.26;64.63;101303.31;15675827;28;20049;-50
2023/09/29 22:00:00;;;;;;;0.10;0.10;;;;;;;20.20;65.39;101320.72;15677014;28;20131;-46
2023/09/29 22:07:37;;;;;;;0.15;0.15;;;;;;;20.00;66.36;101321.34;15633990;28;20041;-46
2023/09/29 22:15:13;;;;;;;0.47;0.30;;;;;;;19.81;67.40;101342.69;15691341;28;20040;-46
2023/09/29 22:22:47;;;;;;;0.10;0.10;;;;;;;19.99;67.57;101374.19;15658895;28;20048;-48
2023/09/29 22:30:21;;;;;;;0.00;0.00;;;;;;;19.24;70.15;101388.56;15675644;28;20467;-46
2023/09/29 22:37:55;;;;;;;0.05;0.05;;;;;;;19.30;70.15;101398.44;15675680;28;20438;-46
2023/09/29 22:45:28;;;;;;;0.15;0.10;;;;;;;19.11;69.22;101422.41;15679922;28;20065;-49
2023/09/29 22:53:02;;;;;;;0.00;0.00;;;;;;;18.38;66.70;101456.84;15672546;28;20041;-48
2023/09/29 23:00:36;;;;;;;0.00;0.00;;;;;;;18.38;65.74;101475.88;15667431;28;20457;-45
2023/09/29 23:08:12;;;;;;;0.25;0.25;;;;;;;18.12;66.30;101490.84;15722505;28;20539;-45
2023/09/29 23:15:46;;;;;;;0.00;0.00;;;;;;;17.93;67.17;101500.25;15673190;28;20049;-47
2023/09/29 23:23:21;;;;;;;0.00;0.00;;;;;;;17.82;66.05;101526.38;15673184;28;20052;-46
2023/09/29 23:30:58;;;;;;;0.00;0.00;;;;;;;17.69;66.14;101538.28;15672016;28;20057;-48
2023/09/29 23:38:34;;;;;;;0.10;0.10;;;;;;;17.65;65.34;101558.00;15672002;28;20523;-50
2023/09/29 23:46:08;;;;;;;0.00;0.00;;;;;;;17.45;64.83;101572.78;15689465;28;20149;-48
2023/09/29 23:53:42;;;;;;;0.00;0.00;;;;;;;17.41;63.74;101587.88;15670589;28;20118;-47
